Date,TemperatureHighF,TemperatureAvgF,TemperatureLowF,DewpointHighF,DewpointAvgF,DewpointLowF,HumidityHigh,HumidityAvg,HumidityLow,PressureMaxIn,PressureMinIn,WindSpeedMaxMPH,WindSpeedAvgMPH,GustSpeedMaxMPH,PrecipitationSumIn
2014-1-12,38.0,35.2,34.0,33.0,30.0,27.0,87,81,70,0.00,40.00,10,7,19,0.00
2014-1-13,48.0,42.9,38.0,42.0,35.1,30.0,88,74,61,0.00,40.00,11,6,24,0.00
2014-1-14,40.0,35.6,30.0,36.0,29.6,20.0,93,79,59,0.00,40.00,15,5,27,0.00
2014-1-15,31.0,25.9,22.0,20.0,17.6,15.0,81,70,60,0.00,40.00,15,8,27,0.00
2014-1-16,29.0,23.8,20.0,27.0,19.0,13.0,95,81,69,0.00,40.00,11,7,25,3.85
2014-1-17,31.0,24.7,14.0,28.0,18.8,9.0,95,78,61,0.00,40.00,10,5,19,0.55
2014-1-18,23.0,14.6,5.0,17.0,8.3,-99.9,94,80,63,0.00,40.00,8,4,14,1.10
2014-1-19,31.0,22.8,17.0,24.0,18.3,16.0,96,83,66,0.00,40.00,17,7,31,0.00
2014-1-20,35.0,29.4,15.0,28.0,22.1,12.0,89,74,62,0.00,40.00,10,5,16,2.75
2014-1-21,15.0,9.9,5.0,12.0,3.2,-2.0,89,75,56,0.00,40.00,8,5,19,1.10
2014-1-26,31.0,16.9,7.0,25.0,11.6,2.0,88,79,72,0.00,40.00,13,5,24,4.48
2014-1-27,30.0,9.7,-4.0,26.0,3.7,-9.0,94,76,61,0.00,40.00,18,11,35,3.34
2014-1-28,6.0,-2.2,-9.0,-9.0,-10.8,-13.0,79,67,47,0.00,40.00,9,6,17,0.00
2014-1-29,17.0,8.2,-1.0,2.0,-2.3,-9.0,75,62,46,0.00,40.00,14,7,26,0.00
2014-1-30,29.0,19.3,10.0,24.0,8.5,2.0,89,62,49,0.00,40.00,13,8,25,1.10
2014-1-31,35.0,31.6,29.0,30.0,24.7,19.0,97,76,58,0.00,40.00,8,4,19,1.10
2014-2-1,38.0,32.2,29.0,38.0,30.1,-99.9,99,97,97,0.00,40.00,7,4,13,20.67
2014-3-2,21.0,15.1,11.0,19.0,9.3,4.0,94,78,50,0.00,40.00,7,4,16,8.46
2014-3-3,18.0,7.8,0.0,4.0,-2.7,-8.0,77,62,43,0.00,40.00,7,2,11,0.00
2014-3-4,25.0,12.4,3.0,7.0,1.9,-3.0,77,64,38,0.00,40.00,6,2,10,0.00
2014-3-5,26.0,20.1,16.0,14.0,10.2,7.0,69,64,54,0.00,40.00,9,5,19,0.00
2014-3-6,26.0,19.4,15.0,17.0,12.3,8.0,87,73,62,0.00,40.00,11,6,19,0.00
2014-3-7,47.0,28.3,10.0,26.0,18.5,9.0,95,70,39,0.00,40.00,7,2,10,0.00
2014-3-8,39.0,33.8,30.0,34.0,30.2,24.0,97,86,65,0.00,40.00,6,2,9,3.89
2014-3-9,38.0,29.1,18.0,27.0,20.6,13.0,93,71,54,0.00,40.00,11,6,17,0.00
2014-3-10,48.0,41.3,38.0,34.0,32.0,27.0,78,69,59,0.00,40.00,12,7,22,0.00
2014-4-4,51.0,42.3,37.0,51.0,39.8,32.0,100,90,78,0.00,40.00,16,9,30,0.55
2014-4-5,51.0,40.0,33.0,32.0,25.5,20.0,80,58,31,0.00,40.00,17,8,29,0.00
2014-4-6,54.0,40.2,26.0,29.0,21.6,-99.9,93,56,29,0.00,40.00,9,3,13,0.00
2014-4-7,49.0,41.4,36.0,42.0,34.0,23.0,98,75,52,0.00,40.00,11,4,21,16.84
2014-4-8,59.0,48.3,40.0,42.0,37.3,33.0,98,70,37,0.00,40.00,11,6,18,5.59
2014-4-30,70.0,64.9,55.0,54.0,49.0,47.0,74,56,47,0.00,40.00,11,6,18,0.00
2014-5-1,54.0,49.8,44.0,46.0,39.2,37.0,83,67,53,0.00,40.00,18,8,30,0.00
2014-5-2,54.0,50.5,46.0,45.0,42.9,41.0,89,75,61,0.00,40.00,12,7,20,0.00
2014-5-3,64.0,54.5,47.0,47.0,41.9,34.0,93,64,36,0.00,40.00,17,8,29,1.10
2014-5-4,61.0,54.5,44.0,43.0,32.2,-99.9,76,47,30,0.00,40.00,17,5,26,0.00
2014-5-5,53.0,46.6,44.0,43.0,37.7,31.0,80,71,58,0.00,40.00,6,2,11,0.00
2014-6-15,-200.0,0.0,200.0,-99.9,-99.9,-99.9,55,55,55,0.00,40.00,2,2,6,0.00
2014-6-16,74.0,73.5,73.0,68.0,68.0,68.0,83,82,81,0.00,40.00,4,3,6,0.00
2014-6-20,64.0,64.0,64.0,62.0,62.0,62.0,93,93,93,0.00,40.00,5,5,13,0.00
2014-6-29,74.0,37.0,74.0,70.0,-15.0,-99.9,88,44,88,0.00,40.00,6,5,12,0.00
2014-6-30,77.0,77.0,77.0,72.0,72.0,72.0,84,84,84,0.00,40.00,4,4,9,0.00
2014-7-2,71.0,71.0,71.0,65.0,65.0,65.0,81,81,81,0.00,40.00,1,1,4,0.00
2014-7-3,63.0,63.0,63.0,59.0,59.0,59.0,86,86,86,0.00,40.00,4,4,10,0.00
2014-7-5,68.0,68.0,68.0,51.0,51.0,51.0,54,54,54,0.00,40.00,0,0,0,0.00
2014-7-6,68.0,68.0,68.0,51.0,51.0,51.0,54,54,54,0.00,40.00,0,0,0,0.00
2014-7-29,69.0,52.9,50.0,53.0,49.9,49.0,97,91,56,0.00,40.00,3,1,7,0.00
2014-7-30,74.0,74.0,74.0,56.0,56.0,56.0,53,53,53,0.00,40.00,6,6,8,0.00
2014-7-31,73.0,37.8,56.0,60.0,34.8,55.0,97,68,40,0.00,40.00,5,2,12,0.00
2014-8-1,64.0,64.0,64.0,61.0,61.0,61.0,91,91,91,0.00,40.00,0,0,2,0.00
2014-8-2,65.0,64.7,64.0,64.0,63.0,62.0,95,94,93,0.00,40.00,3,1,6,0.00
2014-8-3,66.0,64.0,62.0,61.0,60.5,60.0,95,90,85,0.00,40.00,0,0,2,0.00
2014-8-4,84.0,72.9,62.0,65.0,62.7,61.0,97,74,46,0.00,40.00,6,4,9,0.00
2014-8-23,82.0,73.6,67.0,72.0,68.1,66.0,95,84,58,0.00,40.00,7,3,13,0.00
2014-8-24,81.0,73.6,67.0,71.0,68.4,66.0,98,85,64,0.00,40.00,7,3,13,0.00
2014-8-25,88.0,79.0,71.0,74.0,70.9,68.0,97,78,52,0.00,40.00,6,2,12,0.00
2014-8-26,91.0,79.7,71.0,73.0,70.9,69.0,96,76,52,0.00,40.00,12,3,24,0.00
2014-8-27,83.0,73.3,67.0,71.0,65.0,60.0,97,77,46,0.00,40.00,4,1,10,0.00
2014-8-28,76.0,68.0,62.0,62.0,58.3,57.0,96,72,53,0.00,40.00,6,2,10,0.00
2014-8-29,83.0,70.1,60.0,66.0,59.7,51.0,86,70,49,0.00,40.00,5,2,11,0.00
2014-11-22,-200.0,0.0,200.0,-99.9,0.0,200.0,0,0,100,0.00,40.00,6,6,12,0.00
2014-11-24,59.0,44.9,36.0,55.0,38.1,27.0,95,77,69,0.00,40.00,20,13,40,0.55
2014-11-25,36.0,31.8,29.0,28.0,24.3,21.0,78,73,68,0.00,40.00,15,9,31,0.00
2014-11-26,34.0,30.5,28.0,28.0,24.1,21.0,86,76,70,0.00,40.00,4,2,6,0.00
2014-11-27,34.0,30.5,28.0,29.0,26.1,23.0,93,83,67,0.00,40.00,9,6,29,0.00
2014-12-11,33.0,31.6,33.0,19.0,18.2,19.0,55,53,55,0.00,40.00,43,10,152,0.00
2014-12-12,33.0,33.0,33.0,19.0,19.0,19.0,55,55,55,0.00,40.00,4,2,8,0.00
2014-12-13,33.0,33.0,33.0,19.0,19.0,19.0,55,55,55,0.00,40.00,6,5,12,0.00
2014-12-14,-200.0,0.0,200.0,-99.9,0.0,200.0,0,0,100,0.00,40.00,6,6,17,0.00
2014-12-16,33.0,33.0,33.0,19.0,19.0,19.0,55,55,55,0.00,40.00,7,7,21,0.00
2014-12-17,33.0,33.0,33.0,19.0,19.0,19.0,55,55,55,0.00,40.00,14,9,24,0.00
2014-12-18,33.0,33.0,33.0,19.0,19.0,19.0,55,55,55,0.00,40.00,11,5,16,0.00
2014-12-19,33.0,33.0,33.0,19.0,19.0,19.0,55,55,55,0.00,40.00,6,2,10,0.00
2014-12-20,33.0,27.9,33.0,19.0,15.7,19.0,55,53,55,0.00,40.00,4,1,6,0.00
2014-12-21,33.0,33.0,33.0,19.0,19.0,19.0,55,55,55,0.00,40.00,4,1,152,0.00
2014-12-22,33.0,33.0,33.0,19.0,19.0,19.0,55,55,55,0.00,40.00,4,4,7,0.00
2014-12-23,33.0,33.0,33.0,19.0,19.0,19.0,55,55,55,0.00,40.00,4,4,7,0.00
2014-12-24,33.0,33.0,33.0,19.0,19.0,19.0,55,55,55,0.00,40.00,14,11,25,0.00
2014-12-25,33.0,33.0,33.0,19.0,19.0,19.0,55,55,55,0.00,40.00,12,7,24,0.00
2014-12-27,-200.0,0.0,200.0,-99.9,0.0,200.0,0,0,100,0.00,40.00,8,8,14,0.00
2014-12-28,33.0,33.0,33.0,19.0,19.0,19.0,55,55,55,0.00,40.00,7,3,12,0.00
2014-12-29,33.0,33.0,33.0,19.0,19.0,19.0,55,55,55,0.00,40.00,6,3,15,0.00
2015-1-1,33.0,33.0,33.0,19.0,19.0,19.0,55,55,55,0.00,40.00,14,10,24,0.00
2015-1-2,33.0,33.0,33.0,19.0,19.0,19.0,55,55,55,0.00,40.00,7,2,11,0.00